Time;durP1;ratioP1;P1;durP2;ratioP2;P2;SDS_P1;SDS_P2;PMS_P1;PMS_P2;Temp;Humidity;BMP_temperature;BMP_pressure;BME280_temperature;BME280_humidity;BME280_pressure;Samples;Min_cycle;Max_cycle;Signal;HPM_P1;HPM_P2
2021/12/10 00:02:34;;;;;;;;;;;3.70;99.90;;;;;;8389225;28;19932;-68
2021/12/10 00:06:38;;;;;;;;;;;3.60;99.90;;;;;;8382575;28;19933;-69
2021/12/10 00:10:43;;;;;;;;;;;3.60;99.90;;;;;;8385004;28;20371;-68
2021/12/10 00:14:45;;;;;;;;;;;3.60;99.90;;;;;;8384825;28;20283;-68
2021/12/10 00:18:51;;;;;;;;;;;3.60;99.90;;;;;;8369528;28;19976;-68
2021/12/10 00:22:57;;;;;;;;;;;3.60;99.90;;;;;;8384416;28;19940;-68
2021/12/10 00:26:59;;;;;;;;;;;3.60;99.90;;;;;;8369195;28;19931;-68
2021/12/10 00:31:19;;;;;;;;;;;3.60;99.90;;;;;;8390877;28;19924;-69
2021/12/10 00:35:23;;;;;;;;;;;3.60;99.90;;;;;;8378553;28;20357;-68
2021/12/10 00:39:30;;;;;;;;;;;3.60;99.90;;;;;;8386743;28;19928;-69
2021/12/10 00:43:32;;;;;;;;;;;3.60;99.90;;;;;;8386369;28;19974;-68
2021/12/10 00:47:35;;;;;;;;;;;3.70;99.90;;;;;;8388496;28;19967;-69
2021/12/10 00:51:37;;;;;;;;;;;3.70;99.90;;;;;;8379059;28;19981;-69
2021/12/10 00:55:39;;;;;;;;;;;3.70;99.90;;;;;;8378712;28;19933;-68
2021/12/10 00:59:44;;;;;;;;;;;3.70;99.90;;;;;;8381644;28;19966;-69
2021/12/10 01:03:53;;;;;;;;;;;3.80;99.90;;;;;;8385526;28;20423;-69
2021/12/10 01:07:55;;;;;;;;;;;3.80;99.90;;;;;;8383212;28;19968;-68
2021/12/10 01:12:04;;;;;;;;;;;3.80;99.90;;;;;;8382719;28;19939;-68
2021/12/10 01:23:39;;;;;;;;;;;3.80;99.90;;;;;;8383176;28;20296;-68
2021/12/10 01:29:04;;;;;;;;;;;3.80;99.90;;;;;;8382237;28;20290;-68
2021/12/10 01:33:08;;;;;;;;;;;3.80;99.90;;;;;;8375750;28;20048;-68
2021/12/10 01:37:10;;;;;;;;;;;3.80;99.90;;;;;;8385910;28;19967;-68
2021/12/10 01:41:15;;;;;;;;;;;3.80;99.90;;;;;;8374369;28;20000;-68
2021/12/10 01:45:22;;;;;;;;;;;3.70;99.90;;;;;;8382748;28;19968;-68
2021/12/10 01:49:24;;;;;;;;;;;3.70;99.90;;;;;;8396905;28;19979;-68
2021/12/10 01:53:27;;;;;;;;;;;3.60;99.90;;;;;;8383679;28;19933;-68
2021/12/10 01:57:30;;;;;;;;;;;3.60;99.90;;;;;;8384568;28;20364;-68
2021/12/10 02:01:35;;;;;;;;;;;3.60;99.90;;;;;;8386035;28;19924;-68
2021/12/10 02:05:37;;;;;;;;;;;3.50;99.90;;;;;;8379114;28;19928;-68
2021/12/10 02:09:38;;;;;;;;;;;3.50;99.90;;;;;;8383448;28;19928;-68
2021/12/10 02:13:41;;;;;;;;;;;3.50;99.90;;;;;;8385180;28;19925;-68
2021/12/10 02:17:47;;;;;;;;;;;3.40;99.90;;;;;;8380954;28;20000;-68
2021/12/10 02:21:49;;;;;;;;;;;3.40;99.90;;;;;;8360453;28;19982;-68
2021/12/10 02:25:50;;;;;;;;;;;3.40;99.90;;;;;;8381321;28;20240;-68
2021/12/10 02:29:52;;;;;;;;;;;3.40;99.90;;;;;;8391746;28;19929;-68
2021/12/10 02:33:57;;;;;;;;;;;3.40;99.90;;;;;;8378956;28;19932;-68
2021/12/10 02:38:11;;;;;;;;;;;3.40;99.90;;;;;;8383924;28;19959;-68
2021/12/10 02:42:12;;;;;;;;;;;3.30;99.90;;;;;;8382856;28;19947;-68
2021/12/10 02:46:14;;;;;;;;;;;3.40;99.90;;;;;;8381496;28;19948;-68
2021/12/10 02:50:18;;;;;;;;;;;3.30;99.90;;;;;;8393320;28;20388;-68
2021/12/10 02:54:33;;;;;;;;;;;3.30;99.90;;;;;;8388564;28;19925;-69
2021/12/10 02:58:34;;;;;;;;;;;3.30;99.90;;;;;;8392876;28;20328;-68
2021/12/10 03:02:36;;;;;;;;;;;3.30;99.90;;;;;;8388950;28;20141;-69
2021/12/10 03:06:44;;;;;;;;;;;3.30;99.90;;;;;;8398571;28;19947;-68
2021/12/10 03:10:46;;;;;;;;;;;3.30;99.90;;;;;;8389581;28;20003;-68
2021/12/10 03:14:49;;;;;;;;;;;3.30;99.90;;;;;;8393483;28;19936;-68
2021/12/10 03:18:51;;;;;;;;;;;3.30;99.90;;;;;;8393716;28;19931;-68
2021/12/10 03:22:53;;;;;;;;;;;3.30;99.90;;;;;;8389004;28;19932;-69
2021/12/10 03:26:57;;;;;;;;;;;3.30;99.90;;;;;;8407044;28;19959;-69
2021/12/10 03:30:58;;;;;;;;;;;3.40;99.90;;;;;;8375321;28;19960;-69
2021/12/10 03:35:04;;;;;;;;;;;3.40;99.90;;;;;;8392552;28;20050;-69
2021/12/10 03:39:05;;;;;;;;;;;3.50;99.90;;;;;;8397867;28;19925;-69
2021/12/10 03:43:08;;;;;;;;;;;3.50;99.90;;;;;;8389046;28;19971;-68
2021/12/10 03:47:11;;;;;;;;;;;3.50;99.90;;;;;;8387449;28;20317;-68
2021/12/10 03:51:15;;;;;;;;;;;3.50;99.90;;;;;;8390756;28;19924;-68
2021/12/10 03:55:18;;;;;;;;;;;3.60;99.90;;;;;;8385822;28;20008;-68
2021/12/10 03:59:21;;;;;;;;;;;3.60;99.90;;;;;;8385323;28;19975;-68
2021/12/10 04:03:24;;;;;;;;;;;3.60;99.90;;;;;;8387407;28;19963;-68
2021/12/10 04:07:26;;;;;;;;;;;3.60;99.90;;;;;;8389018;28;19932;-68
2021/12/10 04:11:28;;;;;;;;;;;3.60;99.90;;;;;;8397607;28;19939;-68
2021/12/10 04:15:30;;;;;;;;;;;3.60;99.90;;;;;;8381801;28;20024;-69
2021/12/10 04:19:33;;;;;;;;;;;3.60;99.90;;;;;;8385317;28;19929;-68
2021/12/10 04:23:35;;;;;;;;;;;3.60;99.90;;;;;;8389370;28;19924;-69
2021/12/10 04:27:37;;;;;;;;;;;3.70;99.90;;;;;;8390163;28;19936;-68
2021/12/10 04:31:39;;;;;;;;;;;3.70;99.90;;;;;;8386991;28;19932;-68
2021/12/10 04:35:40;;;;;;;;;;;3.70;99.90;;;;;;8390794;28;20046;-69
2021/12/10 04:39:46;;;;;;;;;;;3.70;99.90;;;;;;8382618;28;20360;-68
2021/12/10 04:43:48;;;;;;;;;;;3.70;99.90;;;;;;8382959;28;20546;-69
2021/12/10 04:47:49;;;;;;;;;;;3.70;99.90;;;;;;8381283;28;19964;-68
2021/12/10 04:51:53;;;;;;;;;;;3.70;99.90;;;;;;8378351;28;19979;-69
2021/12/10 04:55:55;;;;;;;;;;;3.80;99.90;;;;;;8387505;28;19933;-68
2021/12/10 04:59:57;;;;;;;;;;;3.80;99.90;;;;;;8376574;28;20308;-68
2021/12/10 05:03:59;;;;;;;;;;;3.80;99.90;;;;;;8386471;28;20019;-68
2021/12/10 05:08:02;;;;;;;;;;;3.80;99.90;;;;;;8374076;28;19986;-69
2021/12/10 05:12:04;;;;;;;;;;;3.80;99.90;;;;;;8381114;28;19932;-68
2021/12/10 05:16:06;;;;;;;;;;;3.80;99.90;;;;;;8382865;28;19983;-68
2021/12/10 05:20:12;;;;;;;;;;;3.80;99.90;;;;;;8373560;28;19939;-68
2021/12/10 05:24:14;;;;;;;;;;;3.80;99.90;;;;;;8380097;28;19940;-68
2021/12/10 05:28:16;;;;;;;;;;;3.80;99.90;;;;;;8381407;28;19925;-68
2021/12/10 05:32:18;;;;;;;;;;;3.90;99.90;;;;;;8382855;28;19971;-69
2021/12/10 05:36:19;;;;;;;;;;;3.90;99.90;;;;;;8384189;28;20382;-69
2021/12/10 05:40:23;;;;;;;;;;;3.90;99.90;;;;;;8380341;28;19967;-69
2021/12/10 05:44:24;;;;;;;;;;;3.90;99.90;;;;;;8384234;28;19964;-69
2021/12/10 05:48:27;;;;;;;;;;;3.90;99.90;;;;;;8383426;28;20236;-69
2021/12/10 05:52:28;;;;;;;;;;;3.90;99.90;;;;;;8383372;28;19924;-69
2021/12/10 05:56:30;;;;;;;;;;;4.00;99.90;;;;;;8397061;28;20299;-69
2021/12/10 06:00:35;;;;;;;;;;;4.00;99.90;;;;;;8368793;28;20400;-69
2021/12/10 06:04:37;;;;;;;;;;;4.00;99.90;;;;;;8386808;28;19982;-69
2021/12/10 06:08:38;;;;;;;;;;;4.00;99.90;;;;;;8386502;28;19971;-69
2021/12/10 06:12:41;;;;;;;;;;;4.00;99.90;;;;;;8378834;28;20256;-69
2021/12/10 06:16:43;;;;;;;;;;;4.00;99.90;;;;;;8354852;28;19924;-69
2021/12/10 06:20:46;;;;;;;;;;;4.00;99.90;;;;;;8365136;28;20365;-69
2021/12/10 06:24:48;;;;;;;;;;;4.00;99.90;;;;;;8383712;28;20446;-69
2021/12/10 06:28:50;;;;;;;;;;;4.00;99.90;;;;;;8374233;28;20027;-69
2021/12/10 06:32:54;;;;;;;;;;;4.00;99.90;;;;;;8362908;28;19925;-69
2021/12/10 06:36:56;;;;;;;;;;;4.00;99.90;;;;;;8366990;28;20411;-69
2021/12/10 06:40:57;;;;;;;;;;;4.00;99.90;;;;;;8377630;28;20016;-69
2021/12/10 06:44:59;;;;;;;;;;;4.00;99.90;;;;;;8371421;28;20422;-69
2021/12/10 06:49:01;;;;;;;;;;;4.00;99.90;;;;;;8387317;28;19967;-69
2021/12/10 06:53:03;;;;;;;;;;;4.00;99.90;;;;;;8373192;28;19947;-69
2021/12/10 06:57:04;;;;;;;;;;;4.00;99.90;;;;;;8374458;28;19991;-69
2021/12/10 07:01:13;;;;;;;;;;;4.00;99.90;;;;;;8380367;28;19924;-69
2021/12/10 07:05:15;;;;;;;;;;;4.00;99.90;;;;;;8373276;28;19968;-69
2021/12/10 07:09:19;;;;;;;;;;;4.00;99.90;;;;;;8385080;28;20380;-69
2021/12/10 07:13:20;;;;;;;;;;;4.00;99.90;;;;;;8389994;28;19932;-69
2021/12/10 07:17:22;;;;;;;;;;;4.00;99.90;;;;;;8369448;28;19925;-69
2021/12/10 07:21:26;;;;;;;;;;;4.00;99.90;;;;;;8385632;28;19974;-69
2021/12/10 07:25:27;;;;;;;;;;;4.00;99.90;;;;;;8380000;28;19932;-69
2021/12/10 07:29:29;;;;;;;;;;;4.00;99.90;;;;;;8378541;28;19974;-69
2021/12/10 07:33:31;;;;;;;;;;;4.00;99.90;;;;;;8390313;28;19983;-68
2021/12/10 07:37:32;;;;;;;;;;;4.00;99.90;;;;;;8376422;28;19995;-69
2021/12/10 07:41:34;;;;;;;;;;;4.00;99.90;;;;;;8374228;28;20328;-69
2021/12/10 07:45:37;;;;;;;;;;;4.00;99.90;;;;;;8352127;28;19960;-68
2021/12/10 07:49:39;;;;;;;;;;;4.00;99.90;;;;;;8351188;28;20387;-69
2021/12/10 07:53:41;;;;;;;;;;;4.00;99.90;;;;;;8380288;28;20399;-69
2021/12/10 07:57:43;;;;;;;;;;;4.00;99.90;;;;;;8347890;28;19960;-69
2021/12/10 08:01:45;;;;;;;;;;;4.00;99.90;;;;;;8352649;28;19925;-68
2021/12/10 08:05:48;;;;;;;;;;;4.00;99.90;;;;;;8368278;28;19932;-69
2021/12/10 08:09:50;;;;;;;;;;;4.10;99.90;;;;;;8356016;28;19964;-69
2021/12/10 08:13:52;;;;;;;;;;;4.10;99.90;;;;;;8351548;28;19925;-69
2021/12/10 08:17:53;;;;;;;;;;;4.20;99.90;;;;;;8369481;28;19971;-69
2021/12/10 08:21:55;;;;;;;;;;;4.20;99.90;;;;;;8353110;28;19925;-68
2021/12/10 08:25:57;;;;;;;;;;;4.20;99.90;;;;;;8351811;28;19929;-69
2021/12/10 08:30:03;;;;;;;;;;;4.30;99.90;;;;;;8351111;28;19950;-69
2021/12/10 08:34:05;;;;;;;;;;;4.30;99.90;;;;;;8349795;28;19925;-69
2021/12/10 08:38:06;;;;;;;;;;;4.40;99.90;;;;;;8353828;28;19933;-69
2021/12/10 08:42:08;;;;;;;;;;;4.40;99.90;;;;;;8375763;28;19940;-69
2021/12/10 08:46:10;;;;;;;;;;;4.40;99.90;;;;;;8385672;28;19928;-69
2021/12/10 08:50:12;;;;;;;;;;;4.40;99.90;;;;;;8382110;28;20273;-69
2021/12/10 08:54:17;;;;;;;9.05;2.53;;;4.40;99.90;;;;;;8386838;28;19932;-69
2021/12/10 08:58:20;;;;;;;6.47;2.80;;;4.50;99.90;;;;;;8380323;28;20447;-69
2021/12/10 09:02:22;;;;;;;6.97;2.58;;;4.50;99.90;;;;;;8367048;28;20052;-69
2021/12/10 09:06:27;;;;;;;;;;;4.50;99.90;;;;;;8384759;28;20127;-69
2021/12/10 09:10:30;;;;;;;;;;;4.60;99.90;;;;;;8380714;28;20395;-69
2021/12/10 09:14:39;;;;;;;;;;;4.60;99.90;;;;;;8384578;28;20007;-69
2021/12/10 09:18:41;;;;;;;;;;;4.60;99.90;;;;;;8383442;28;19963;-69
2021/12/10 09:22:43;;;;;;;;;;;4.70;99.90;;;;;;8364027;28;19928;-69
2021/12/10 09:26:46;;;;;;;;;;;4.70;99.90;;;;;;8385721;28;19920;-69
2021/12/10 09:30:49;;;;;;;;;;;4.80;99.90;;;;;;8381100;28;19928;-69
2021/12/10 09:34:52;;;;;;;;;;;4.80;99.90;;;;;;8383932;28;20335;-69
2021/12/10 09:38:54;;;;;;;;;;;4.80;99.90;;;;;;8387147;28;19928;-69
2021/12/10 09:42:55;;;;;;;;;;;4.70;99.90;;;;;;8384459;28;19968;-69
2021/12/10 09:46:57;;;;;;;;;;;4.70;99.90;;;;;;8384835;28;19928;-69
2021/12/10 09:51:02;;;;;;;;;;;4.70;99.90;;;;;;8382756;28;19924;-69
2021/12/10 09:55:05;;;;;;;;;;;4.70;99.90;;;;;;8381656;28;19932;-69
2021/12/10 09:59:07;;;;;;;;;;;4.80;99.90;;;;;;8384417;28;19921;-69
2021/12/10 10:03:10;;;;;;;;;;;4.80;99.90;;;;;;8379496;28;19970;-69
2021/12/10 10:07:14;;;;;;;;;;;4.80;99.90;;;;;;8377979;28;20379;-69
2021/12/10 10:11:17;;;;;;;;;;;4.80;99.90;;;;;;8363940;28;19982;-69
2021/12/10 10:15:22;;;;;;;;;;;4.80;99.90;;;;;;8380861;28;19935;-69
2021/12/10 10:19:27;;;;;;;;;;;4.80;99.90;;;;;;8380807;28;19920;-69
2021/12/10 10:23:29;;;;;;;;;;;4.90;99.90;;;;;;8383441;28;19924;-69
2021/12/10 10:27:31;;;;;;;;;;;4.90;99.90;;;;;;8379564;28;20379;-69
2021/12/10 10:31:34;;;;;;;;;;;4.90;99.90;;;;;;8379530;28;20376;-69
2021/12/10 10:35:39;;;;;;;;;;;5.00;99.90;;;;;;8381344;28;19974;-69
2021/12/10 10:39:43;;;;;;;;;;;5.00;99.90;;;;;;8381255;28;19927;-69
2021/12/10 10:43:45;;;;;;;;;;;5.00;99.90;;;;;;8379821;28;20664;-69
2021/12/10 10:47:47;;;;;;;;;;;5.10;99.90;;;;;;8349008;28;20057;-69
2021/12/10 10:52:10;;;;;;;;;;;5.10;99.90;;;;;;8378096;28;19920;-69
2021/12/10 10:56:17;;;;;;;;;;;5.10;99.90;;;;;;8380281;28;19939;-69
2021/12/10 11:00:19;;;;;;;;;;;5.10;99.90;;;;;;8378925;28;20343;-69
2021/12/10 11:04:26;;;;;;;;;;;5.20;99.90;;;;;;8380566;28;19927;-69
2021/12/10 11:08:33;;;;;;;;;;;5.20;99.90;;;;;;8384100;28;20291;-69
2021/12/10 11:12:36;;;;;;;;;;;5.20;99.90;;;;;;8387624;28;19951;-69
2021/12/10 11:16:39;;;;;;;;;;;5.30;99.90;;;;;;8366577;28;20042;-69
2021/12/10 11:20:43;;;;;;;;;;;5.40;99.90;;;;;;8385447;28;20275;-69
2021/12/10 11:24:47;;;;;;;;;;;5.40;99.90;;;;;;8387144;28;19924;-69
2021/12/10 11:28:48;;;;;;;;;;;5.40;99.90;;;;;;8363671;28;19924;-69
2021/12/10 11:32:53;;;;;;;;;;;5.50;99.90;;;;;;8356388;28;19928;-69
2021/12/10 11:36:54;;;;;;;;;;;5.50;99.90;;;;;;8384902;28;19920;-69
2021/12/10 11:41:00;;;;;;;;;;;5.40;99.90;;;;;;8386080;28;19960;-69
2021/12/10 11:45:17;;;;;;;;;;;5.40;99.90;;;;;;8369502;28;19931;-69
2021/12/10 11:49:32;;;;;;;;;;;5.40;99.90;;;;;;8355801;28;19979;-69
2021/12/10 11:53:44;;;;;;;;;;;5.40;99.90;;;;;;8385887;28;20004;-69
2021/12/10 11:57:50;;;;;;;;;;;5.50;99.90;;;;;;8367579;28;19952;-69
2021/12/10 12:01:51;;;;;;;;;;;5.60;99.90;;;;;;8365797;28;19924;-68
2021/12/10 12:05:53;;;;;;;;;;;5.60;99.90;;;;;;8385571;28;20380;-69
2021/12/10 12:10:02;;;;;;;;;;;5.60;99.90;;;;;;8385540;28;19927;-69
2021/12/10 12:14:23;;;;;;;;;;;5.70;99.90;;;;;;8368470;28;20430;-69
2021/12/10 12:18:29;;;;;;;;;;;5.70;99.90;;;;;;8379676;28;19928;-69
2021/12/10 12:27:05;;;;;;;;;;;5.70;99.90;;;;;;8335860;28;19972;-69
2021/12/10 12:31:22;;;;;;;;;;;5.70;99.90;;;;;;8354572;28;19921;-69
2021/12/10 12:35:33;;;;;;;;;;;5.60;99.90;;;;;;8377465;28;19924;-69
2021/12/10 12:39:38;;;;;;;;;;;5.70;99.90;;;;;;8375661;28;19954;-69
2021/12/10 12:43:41;;;;;;;;;;;5.70;99.90;;;;;;8378713;28;20208;-69
2021/12/10 12:47:57;;;;;;;;;;;5.70;99.90;;;;;;8377061;28;19931;-69
2021/12/10 12:52:20;;;;;;;;;;;5.70;99.90;;;;;;8373047;28;19931;-69
2021/12/10 12:56:24;;;;;;;;;;;5.80;99.90;;;;;;8375611;28;19959;-69
2021/12/10 13:00:44;;;;;;;;;;;5.80;99.90;;;;;;8374008;28;19923;-69
2021/12/10 13:04:48;;;;;;;;;;;5.80;99.90;;;;;;8379648;28;19964;-69
2021/12/10 13:08:58;;;;;;;;;;;5.80;99.90;;;;;;8373607;28;19935;-69
2021/12/10 13:13:11;;;;;;;;;;;5.80;99.90;;;;;;8381501;28;20108;-69
2021/12/10 13:17:14;;;;;;;;;;;5.80;99.90;;;;;;8366672;28;19948;-69
2021/12/10 13:21:16;;;;;;;;;;;5.80;99.90;;;;;;8375578;28;19958;-69
2021/12/10 13:25:20;;;;;;;;;;;5.80;99.90;;;;;;8388081;28;19964;-68
2021/12/10 13:29:22;;;;;;;;;;;5.80;99.90;;;;;;8375944;28;20252;-68
2021/12/10 13:33:26;;;;;;;;;;;5.80;99.90;;;;;;8386837;28;19959;-69
2021/12/10 13:37:27;;;;;;;;;;;5.80;99.90;;;;;;8381441;28;19979;-69
2021/12/10 13:41:31;;;;;;;;;;;5.80;99.90;;;;;;8379961;28;19928;-69
2021/12/10 13:45:34;;;;;;;;;;;5.90;99.90;;;;;;8384995;28;19963;-69
2021/12/10 13:49:43;;;;;;;;;;;5.80;99.90;;;;;;8384679;28;19982;-68
2021/12/10 13:54:04;;;;;;;;;;;5.80;99.90;;;;;;8398758;28;20702;-68
2021/12/10 13:58:08;;;;;;;;;;;5.80;99.90;;;;;;8384045;28;20012;-69
2021/12/10 14:02:10;;;;;;;;;;;5.80;99.90;;;;;;8385255;28;20320;-69
2021/12/10 14:06:21;;;;;;;;;;;5.80;99.90;;;;;;8382645;28;19960;-68
2021/12/10 14:10:29;;;;;;;;;;;5.80;99.90;;;;;;8383079;28;19920;-69
2021/12/10 14:14:32;;;;;;;;;;;5.80;99.90;;;;;;8383741;28;19946;-69
2021/12/10 14:18:43;;;;;;;;;;;5.80;99.90;;;;;;8381551;28;19924;-69
2021/12/10 14:23:07;;;;;;;;;;;5.80;99.90;;;;;;8386625;28;20425;-68
2021/12/10 14:27:30;;;;;;;;;;;5.70;99.90;;;;;;8385872;28;20369;-69
2021/12/10 14:31:52;;;;;;;;;;;5.60;99.90;;;;;;8381628;28;23758;-69
2021/12/10 14:35:54;;;;;;;;;;;5.60;99.90;;;;;;8384846;28;19924;-69
2021/12/10 14:40:00;;;;;;;;;;;5.60;99.90;;;;;;8360705;28;19939;-69
2021/12/10 14:44:04;;;;;;;;;;;5.60;99.90;;;;;;8381850;28;19931;-69
2021/12/10 14:48:07;;;;;;;;;;;5.60;99.90;;;;;;8381834;28;19920;-68
2021/12/10 14:52:38;;;;;;;;;;;5.60;99.90;;;;;;8382966;28;20004;-69
2021/12/10 14:57:02;;;;;;;;;;;5.60;99.90;;;;;;8360623;28;20402;-69
2021/12/10 15:01:24;;;;;;;;;;;5.60;99.90;;;;;;8383239;28;20392;-69
2021/12/10 15:05:48;;;;;;;;;;;5.60;99.90;;;;;;8383150;28;19927;-69
2021/12/10 15:10:16;;;;;;;;;;;5.60;99.90;;;;;;8381327;28;20536;-69
2021/12/10 15:14:40;;;;;;;;;;;5.60;99.90;;;;;;8363594;28;19928;-69
2021/12/10 15:18:46;;;;;;;;;;;5.60;99.90;;;;;;8376413;28;19924;-69
2021/12/10 15:22:48;;;;;;;;;;;5.60;99.90;;;;;;8380391;28;20008;-69
2021/12/10 15:26:49;;;;;;;;;;;5.50;99.90;;;;;;8375147;28;19967;-69
2021/12/10 15:30:52;;;;;;;;;;;5.50;99.90;;;;;;8383360;28;19924;-69
2021/12/10 15:35:06;;;;;;;;;;;5.50;99.90;;;;;;8362361;28;19928;-69
2021/12/10 15:39:08;;;;;;;;;;;5.40;99.90;;;;;;8375047;28;19960;-69
2021/12/10 15:43:11;;;;;;;;;;;5.40;99.90;;;;;;8375510;28;20406;-69
2021/12/10 15:47:14;;;;;;;;;;;5.40;99.90;;;;;;8378819;28;19968;-69
2021/12/10 15:51:18;;;;;;;;;;;5.40;99.90;;;;;;8351601;28;19931;-69
2021/12/10 15:55:19;;;;;;;;;;;5.40;99.90;;;;;;8385445;28;20331;-69
2021/12/10 15:59:25;;;;;;;;;;;5.40;99.90;;;;;;8382303;28;19939;-69
2021/12/10 16:03:27;;;;;;;;;;;5.40;99.90;;;;;;8386008;28;20364;-69
2021/12/10 16:07:32;;;;;;;;;;;5.40;99.90;;;;;;8386520;28;20037;-69
2021/12/10 16:11:34;;;;;;;;;;;5.30;99.90;;;;;;8385531;28;20008;-69
2021/12/10 16:15:50;;;;;;;;;;;5.30;99.90;;;;;;8384756;28;20043;-69
2021/12/10 16:19:53;;;;;;;;;;;5.30;99.90;;;;;;8379718;28;19940;-69
2021/12/10 16:23:59;;;;;;;;;;;5.30;99.90;;;;;;8351774;28;20418;-69
2021/12/10 16:28:01;;;;;;;;;;;5.30;99.90;;;;;;8379203;28;20008;-70
2021/12/10 16:32:11;;;;;;;;;;;5.30;99.90;;;;;;8355631;28;19964;-69
2021/12/10 16:36:14;;;;;;;;;;;5.30;99.90;;;;;;8365662;28;19943;-69
2021/12/10 16:40:19;;;;;;;;;;;5.30;99.90;;;;;;8378669;28;19924;-69
2021/12/10 16:44:21;;;;;;;;;;;5.30;99.90;;;;;;8378312;28;20094;-69
2021/12/10 16:48:31;;;;;;;;;;;5.30;99.90;;;;;;8389137;28;20363;-69
2021/12/10 16:52:34;;;;;;;;;;;5.30;99.90;;;;;;8363109;28;20054;-69
2021/12/10 16:56:41;;;;;;;;;;;5.30;99.90;;;;;;8378920;28;19932;-69
2021/12/10 17:00:46;;;;;;;;;;;5.20;99.90;;;;;;8373171;28;20362;-69
2021/12/10 17:04:53;;;;;;;;;;;5.20;99.90;;;;;;8389696;28;20360;-69
2021/12/10 17:08:55;;;;;;;;;;;5.20;99.90;;;;;;8351305;28;20463;-69
2021/12/10 17:13:02;;;;;;;;;;;5.20;99.90;;;;;;8370644;28;19967;-70
2021/12/10 17:17:06;;;;;;;;;;;5.20;99.90;;;;;;8370225;28;19935;-69
2021/12/10 17:21:10;;;;;;;;;;;5.20;99.90;;;;;;8372167;28;20448;-69
2021/12/10 17:25:17;;;;;;;;;;;5.20;99.90;;;;;;8375790;28;19928;-69
2021/12/10 17:29:25;;;;;;;;;;;5.20;99.90;;;;;;8376627;28;20014;-69
2021/12/10 17:33:31;;;;;;;;;;;5.20;99.90;;;;;;8376366;28;19927;-69
2021/12/10 17:37:34;;;;;;;;;;;5.20;99.90;;;;;;8368704;28;19920;-69
2021/12/10 17:41:36;;;;;;;;;;;5.20;99.90;;;;;;8376684;28;19927;-69
2021/12/10 17:45:43;;;;;;;;;;;5.20;99.90;;;;;;8392740;28;19955;-69
2021/12/10 17:49:47;;;;;;;;;;;5.20;99.90;;;;;;8356530;28;19975;-69
2021/12/10 17:53:50;;;;;;;;;;;5.10;99.90;;;;;;8361105;28;20428;-69
2021/12/10 17:57:56;;;;;;;;;;;5.10;99.90;;;;;;8379995;28;19971;-69
2021/12/10 18:02:00;;;;;;;;;;;5.10;99.90;;;;;;8355972;28;20400;-69
2021/12/10 18:06:02;;;;;;;;;;;5.10;99.90;;;;;;8379625;28;19924;-69
2021/12/10 18:10:07;;;;;;;;;;;5.10;99.90;;;;;;8360498;28;20015;-69
2021/12/10 18:14:09;;;;;;;;;;;5.10;99.90;;;;;;8377030;28;19985;-69
2021/12/10 18:18:15;;;;;;;;;;;5.10;99.90;;;;;;8378564;28;20368;-69
2021/12/10 18:22:19;;;;;;;;;;;5.10;99.90;;;;;;8375987;28;20392;-69
2021/12/10 18:26:25;;;;;;;;;;;5.10;99.90;;;;;;8380337;28;19924;-69
2021/12/10 18:30:28;;;;;;;;;;;5.10;99.90;;;;;;8346999;28;20035;-69
2021/12/10 18:34:31;;;;;;;;;;;5.10;99.90;;;;;;8375301;28;19921;-69
2021/12/10 18:38:34;;;;;;;;;;;5.00;99.90;;;;;;8378446;28;19947;-69
2021/12/10 18:42:37;;;;;;;;;;;5.00;99.90;;;;;;8352960;28;20023;-69
2021/12/10 18:46:39;;;;;;;;;;;5.00;99.90;;;;;;8380385;28;20024;-69
2021/12/10 18:50:40;;;;;;;;;;;5.00;99.90;;;;;;8374142;28;19982;-69
2021/12/10 18:54:45;;;;;;;;;;;4.90;99.90;;;;;;8381179;28;19931;-69
2021/12/10 18:58:52;;;;;;;;;;;4.90;99.90;;;;;;8362595;28;20763;-69
2021/12/10 19:02:54;;;;;;;;;;;4.80;99.90;;;;;;8377385;28;20291;-69
2021/12/10 19:07:05;;;;;;;;;;;4.80;99.90;;;;;;8361834;28;19974;-69
2021/12/10 19:11:09;;;;;;;;;;;4.70;99.90;;;;;;8372432;28;19929;-69
2021/12/10 19:15:37;;;;;;;;;;;4.60;99.90;;;;;;8365082;28;19963;-69
2021/12/10 19:19:41;;;;;;;;;;;4.60;99.90;;;;;;8372657;28;20299;-69
2021/12/10 19:23:48;;;;;;;;;;;4.50;99.90;;;;;;8375869;28;19928;-69
2021/12/10 19:27:52;;;;;;;;;;;4.50;99.90;;;;;;8379377;28;19971;-69
2021/12/10 19:31:54;;;;;;;;;;;4.40;99.90;;;;;;8384741;28;19963;-70
2021/12/10 19:35:59;;;;;;;;;;;4.40;99.90;;;;;;8382063;28;19968;-69
2021/12/10 19:40:07;;;;;;;;;;;4.30;99.90;;;;;;8377296;28;19959;-69
2021/12/10 19:44:12;;;;;;;;;;;4.20;99.90;;;;;;8381677;28;20015;-69
2021/12/10 19:48:16;;;;;;;;;;;4.20;99.90;;;;;;8380604;28;19960;-69
2021/12/10 19:52:20;;;;;;;;;;;4.10;99.90;;;;;;8379806;28;19970;-69
2021/12/10 19:56:26;;;;;;;;;;;4.10;99.90;;;;;;8383249;28;19924;-69
2021/12/10 20:00:42;;;;;;;;;;;4.00;99.90;;;;;;8378982;28;20306;-70
2021/12/10 20:05:05;;;;;;;;;;;4.00;99.90;;;;;;8378737;28;19920;-69
2021/12/10 20:09:16;;;;;;;;;;;3.90;99.90;;;;;;8382641;28;20400;-69
2021/12/10 20:13:38;;;;;;;;;;;3.80;99.90;;;;;;8382941;28;19969;-69
2021/12/10 20:17:41;;;;;;;;;;;3.70;99.90;;;;;;8382355;28;20573;-69
2021/12/10 20:22:02;;;;;;;;;;;3.60;99.90;;;;;;8384932;28;19963;-69
2021/12/10 20:26:09;;;;;;;;;;;3.60;99.90;;;;;;8385191;28;20383;-69
2021/12/10 20:30:19;;;;;;;;;;;3.50;99.90;;;;;;8384656;28;19963;-68
2021/12/10 20:34:24;;;;;;;;;;;3.40;99.90;;;;;;8361776;28;19920;-69
2021/12/10 20:38:31;;;;;;;;;;;3.40;99.90;;;;;;8365525;28;19984;-69
2021/12/10 20:42:35;;;;;;;;;;;3.30;99.90;;;;;;8382321;28;19959;-69
2021/12/10 20:46:39;;;;;;;;;;;3.20;99.90;;;;;;8382264;28;19975;-69
2021/12/10 20:51:01;;;;;;;;;;;3.20;99.90;;;;;;8385484;28;20356;-69
2021/12/10 20:55:06;;;;;;;;;;;3.10;99.90;;;;;;8384789;28;19948;-69
2021/12/10 20:59:11;;;;;;;;;;;3.10;99.90;;;;;;8383754;28;19975;-69
2021/12/10 21:03:19;;;;;;;;;;;3.10;99.90;;;;;;8382862;28;19920;-69
2021/12/10 21:07:25;;;;;;;;;;;3.00;99.90;;;;;;8380415;28;19982;-69
2021/12/10 21:11:33;;;;;;;;;;;2.90;99.90;;;;;;8399242;28;19920;-69
2021/12/10 21:15:40;;;;;;;;;;;2.90;99.90;;;;;;8388462;28;19920;-69
2021/12/10 21:19:44;;;;;;;;;;;2.80;99.90;;;;;;8384693;28;20014;-69
2021/12/10 21:24:00;;;;;;;;;;;2.70;99.90;;;;;;8385805;28;19964;-69
2021/12/10 21:28:13;;;;;;;;;;;2.70;99.90;;;;;;8386312;28;20014;-69
2021/12/10 21:32:15;;;;;;;;;;;2.60;99.90;;;;;;8385987;28;20007;-69
2021/12/10 21:37:55;;;;;;;;;;;2.50;99.90;;;;;;8383175;28;19927;-69
2021/12/10 21:40:58;;;;;;;;;;;2.50;99.90;;;;;;8383875;28;19920;-69
2021/12/10 21:45:09;;;;;;;;;;;2.40;99.90;;;;;;8385016;28;19943;-69
2021/12/10 21:49:13;;;;;;;;;;;2.30;99.90;;;;;;8363769;28;19921;-69
2021/12/10 21:53:16;;;;;;;;;;;2.20;99.90;;;;;;8381171;28;20014;-69
2021/12/10 21:57:24;;;;;;;;;;;2.20;99.90;;;;;;8383485;28;21289;-69
2021/12/10 22:01:31;;;;;;;;;;;2.20;99.90;;;;;;8359703;28;20006;-69
2021/12/10 22:05:53;;;;;;;;;;;2.10;99.90;;;;;;8391997;28;19974;-69
2021/12/10 22:09:55;;;;;;;;;;;2.10;99.90;;;;;;8384574;28;19924;-69
2021/12/10 22:14:04;;;;;;;;;;;2.00;99.90;;;;;;8368914;28;19925;-69
2021/12/10 22:18:25;;;;;;;;;;;2.00;99.90;;;;;;8374574;28;20019;-69
2021/12/10 22:22:35;;;;;;;;;;;1.90;99.90;;;;;;8386340;28;19933;-69
2021/12/10 22:26:38;;;;;;;;;;;1.90;99.90;;;;;;8381671;28;20122;-69
2021/12/10 22:30:42;;;;;;;;;;;1.90;99.90;;;;;;8389118;28;19928;-68
2021/12/10 22:34:55;;;;;;;;;;;1.80;99.90;;;;;;8390079;28;20363;-69
2021/12/10 22:39:05;;;;;;;;;;;1.70;99.90;;;;;;8367400;28;19925;-69
2021/12/10 22:43:10;;;;;;;;;;;1.70;99.90;;;;;;8384775;28;20283;-68
2021/12/10 22:47:14;;;;;;;;;;;1.60;99.90;;;;;;8387870;28;19971;-69
2021/12/10 22:51:19;;;;;;;;;;;1.50;99.90;;;;;;8384137;28;19925;-69
2021/12/10 22:55:24;;;;;;;;;;;1.50;99.90;;;;;;8381942;28;19932;-69
2021/12/10 22:59:29;;;;;;;;;;;1.40;99.90;;;;;;8397522;28;19967;-69
2021/12/10 23:03:37;;;;;;;;;;;1.40;99.90;;;;;;8378373;28;19924;-69
2021/12/10 23:07:48;;;;;;;;;;;1.30;99.90;;;;;;8397222;28;19967;-69
2021/12/10 23:11:53;;;;;;;;;;;1.30;99.90;;;;;;8399060;28;20286;-68
2021/12/10 23:16:00;;;;;;;;;;;1.30;99.90;;;;;;8384936;28;20333;-69
2021/12/10 23:20:11;;;;;;;;;;;1.30;99.90;;;;;;8397876;28;19970;-69
2021/12/10 23:24:16;;;;;;;;;;;1.40;99.90;;;;;;8402016;28;19925;-69
2021/12/10 23:28:22;;;;;;;;;;;1.40;99.90;;;;;;8390167;28;19963;-69
2021/12/10 23:32:31;;;;;;;;;;;1.40;99.90;;;;;;8400672;28;19935;-69
2021/12/10 23:36:33;;;;;;;;;;;1.40;99.90;;;;;;8393485;28;19971;-69
2021/12/10 23:40:43;;;;;;;;;;;1.30;99.90;;;;;;8391778;28;19932;-68
2021/12/10 23:44:57;;;;;;;;;;;1.30;99.90;;;;;;8384858;28;20368;-69
2021/12/10 23:49:00;;;;;;;;;;;1.30;99.90;;;;;;8392393;28;19924;-68
2021/12/10 23:53:05;;;;;;;;;;;1.20;99.90;;;;;;8396900;28;20023;-68
2021/12/10 23:57:09;;;;;;;;;;;1.20;99.90;;;;;;8394815;28;19929;-69
